Time;durP1;ratioP1;P1;durP2;ratioP2;P2;SDS_P1;SDS_P2;PMS_P1;PMS_P2;Temp;Humidity;BMP_temperature;BMP_pressure;BME280_temperature;BME280_humidity;BME280_pressure;Samples;Min_cycle;Max_cycle;Signal;HPM_P1;HPM_P2
2022/03/15 00:00:01;;;;;;;38.97;20.03;;;;;;;3.83;61.58;101779.14;3751856;77;99128;-81
2022/03/15 00:05:02;;;;;;;40.47;20.33;;;;;;;4.02;63.34;101782.59;3734310;78;98793;-80
2022/03/15 00:10:06;;;;;;;40.33;20.20;;;;;;;4.27;63.18;101783.48;3724544;79;98792;-80
2022/03/15 00:15:08;;;;;;;37.50;20.40;;;;;;;4.39;63.43;101787.33;3747572;79;34666;-80
2022/03/15 00:20:14;;;;;;;37.67;19.40;;;;;;;4.48;63.80;101786.86;3720733;78;98688;-80
2022/03/15 00:25:18;;;;;;;39.18;21.05;;;;;;;4.58;64.16;101790.75;3718753;79;98564;-80
2022/03/15 00:30:22;;;;;;;39.73;21.05;;;;;;;4.66;64.30;101796.05;3699429;78;98734;-81
2022/03/15 00:35:24;;;;;;;43.25;20.57;;;;;;;4.68;64.58;101788.36;3675967;79;98872;-80
2022/03/15 00:40:25;;;;;;;36.73;19.00;;;;;;;4.61;63.90;101791.52;3692947;78;98903;-81
2022/03/15 00:45:28;;;;;;;39.47;19.90;;;;;;;4.57;64.90;101785.05;3625060;80;25726;-80
2022/03/15 00:50:29;;;;;;;40.95;19.17;;;;;;;4.56;65.72;101792.16;3631048;80;99013;-80
2022/03/15 00:55:31;;;;;;;39.30;19.37;;;;;;;4.52;66.57;101796.05;3640105;80;98759;-80
2022/03/15 01:00:32;;;;;;;39.73;19.07;;;;;;;4.49;65.98;101801.31;3664742;79;98857;-81
2022/03/15 01:05:33;;;;;;;34.90;17.17;;;;;;;4.45;67.55;101800.29;3592584;80;98854;-80
2022/03/15 01:10:34;;;;;;;30.77;16.97;;;;;;;4.41;67.48;101803.36;3620933;78;98856;-81
2022/03/15 01:15:42;;;;;;;31.63;17.80;;;;;;;4.32;67.08;101797.02;3689279;78;35404;-79
2022/03/15 01:20:42;;;;;;;29.45;16.95;;;;;;;4.24;66.95;101795.80;3760646;77;98813;-81
2022/03/15 01:25:44;;;;;;;30.97;15.30;;;;;;;4.25;69.24;101798.77;3697094;78;98724;-80
2022/03/15 01:30:45;;;;;;;30.12;16.02;;;;;;;4.22;69.74;101797.20;3712945;78;98945;-80
2022/03/15 01:35:46;;;;;;;31.60;17.23;;;;;;;4.21;70.46;101797.75;3718851;78;98862;-80
2022/03/15 01:40:47;;;;;;;28.87;14.47;;;;;;;4.23;71.36;101807.81;3705515;77;98911;-81
2022/03/15 01:45:48;;;;;;;30.30;16.97;;;;;;;4.18;71.28;101801.09;3692716;79;98741;-80
2022/03/15 01:50:49;;;;;;;31.23;15.97;;;;;;;4.17;73.27;101806.30;3623106;80;98643;-81
2022/03/15 01:55:50;;;;;;;27.90;15.27;;;;;;;4.20;73.53;101807.61;3682297;79;98711;-81
2022/03/15 02:00:51;;;;;;;27.27;14.30;;;;;;;4.20;74.35;101807.61;3660532;79;98886;-81
2022/03/15 02:05:52;;;;;;;28.97;14.53;;;;;;;4.21;73.89;101807.28;3665149;79;98757;-81
2022/03/15 02:10:53;;;;;;;29.20;14.37;;;;;;;4.21;73.93;101805.92;3642218;79;98762;-81
2022/03/15 02:15:54;;;;;;;26.27;14.90;;;;;;;4.22;74.99;101804.84;3673121;79;98783;-81
2022/03/15 02:20:55;;;;;;;25.35;14.18;;;;;;;4.21;74.75;101794.23;3663941;78;98553;-81
2022/03/15 02:25:56;;;;;;;26.93;14.13;;;;;;;4.23;75.15;101795.55;3710746;79;98549;-81
2022/03/15 02:30:57;;;;;;;28.67;13.72;;;;;;;4.25;74.83;101789.23;3701503;78;98701;-81
2022/03/15 02:35:58;;;;;;;25.23;13.47;;;;;;;4.25;74.07;101791.95;3608303;78;99320;-81
2022/03/15 02:41:00;;;;;;;26.83;13.77;;;;;;;4.30;75.56;101801.94;3714181;78;98766;-81
2022/03/15 02:46:01;;;;;;;24.97;14.47;;;;;;;4.28;75.67;101799.55;3849471;75;98820;-81
2022/03/15 02:51:10;;;;;;;26.33;13.20;;;;;;;4.27;76.19;101800.63;3860308;75;98623;-81
2022/03/15 02:56:11;;;;;;;25.27;14.20;;;;;;;4.26;76.14;101802.31;3858447;74;98554;-81
2022/03/15 03:01:12;;;;;;;24.43;13.00;;;;;;;4.25;76.04;101797.41;3860490;75;98631;-81
2022/03/15 03:06:13;;;;;;;25.53;13.60;;;;;;;4.25;76.84;101793.31;3868963;74;98772;-81
2022/03/15 03:11:14;;;;;;;25.87;13.67;;;;;;;4.26;77.47;101798.23;3855755;75;98733;-81
2022/03/15 03:16:16;;;;;;;23.98;12.13;;;;;;;4.22;77.12;101802.66;3860495;75;98810;-81
2022/03/15 03:21:17;;;;;;;28.37;14.50;;;;;;;4.15;76.92;101805.77;3836549;75;98483;-81
2022/03/15 03:26:18;;;;;;;24.93;13.57;;;;;;;4.09;77.74;101811.62;3815978;77;98648;-81
2022/03/15 03:31:19;;;;;;;26.77;14.17;;;;;;;4.08;76.61;101808.09;3803076;77;98657;-81
2022/03/15 03:36:20;;;;;;;24.07;11.87;;;;;;;4.00;77.05;101814.24;3788480;77;98854;-81
2022/03/15 03:41:21;;;;;;;25.40;13.20;;;;;;;3.94;76.33;101811.89;3670218;79;98864;-81
2022/03/15 03:46:22;;;;;;;24.87;12.93;;;;;;;3.92;76.43;101814.09;3678896;79;98752;-81
2022/03/15 03:51:23;;;;;;;24.20;13.87;;;;;;;3.87;75.60;101814.20;3632611;79;98266;-80
2022/03/15 03:56:24;;;;;;;30.60;14.23;;;;;;;3.79;75.75;101803.98;3688819;79;98644;-81
2022/03/15 04:01:25;;;;;;;26.73;13.87;;;;;;;3.66;76.37;101815.65;3645821;79;98528;-81
2022/03/15 04:06:26;;;;;;;26.20;13.45;;;;;;;3.60;76.43;101801.87;3645164;80;98809;-81
2022/03/15 04:11:29;;;;;;;25.67;13.43;;;;;;;3.51;78.93;101796.30;3740461;78;98811;-81
2022/03/15 04:16:32;;;;;;;30.95;15.32;;;;;;;3.47;77.17;101812.13;3769436;78;98788;-81
2022/03/15 04:21:33;;;;;;;25.03;12.93;;;;;;;3.39;77.15;101812.25;3740909;78;98325;-81
2022/03/15 04:26:34;;;;;;;28.77;13.87;;;;;;;3.32;77.29;101815.08;3724571;78;105644;-80
2022/03/15 04:31:35;;;;;;;31.30;14.07;;;;;;;3.22;77.39;101821.48;3731117;78;98827;-82
2022/03/15 04:36:36;;;;;;;23.23;12.43;;;;;;;3.22;79.66;101827.50;3743754;77;98824;-80
2022/03/15 04:41:37;;;;;;;31.17;13.83;;;;;;;3.15;79.23;101817.52;3836360;75;98766;-81
2022/03/15 04:46:38;;;;;;;25.17;12.50;;;;;;;3.17;80.90;101816.11;3867096;75;98847;-80
2022/03/15 04:51:39;;;;;;;28.03;13.03;;;;;;;3.18;81.01;101821.02;3831017;75;25903;-80
2022/03/15 04:56:41;;;;;;;28.10;15.03;;;;;;;3.21;82.41;101818.52;3825402;75;98848;-80
2022/03/15 05:01:42;;;;;;;24.47;14.03;;;;;;;3.27;83.58;101821.98;3863302;75;98540;-81
2022/03/15 05:06:42;;;;;;;22.87;12.33;;;;;;;3.39;85.76;101817.69;3855721;74;98819;-81
2022/03/15 05:11:46;;;;;;;28.37;14.30;;;;;;;3.47;85.52;101821.66;3829832;75;98809;-80
2022/03/15 05:16:48;;;;;;;30.67;15.20;;;;;;;3.56;86.90;101823.41;3862276;75;99115;-82
2022/03/15 05:21:49;;;;;;;31.17;17.03;;;;;;;3.71;88.44;101829.18;3836720;75;98863;-81
2022/03/15 05:26:50;;;;;;;31.60;16.50;;;;;;;3.89;90.08;101830.50;3871703;75;98899;-80
2022/03/15 05:31:51;;;;;;;29.77;15.67;;;;;;;4.05;90.26;101831.03;3848781;75;98578;-81
2022/03/15 05:36:52;;;;;;;29.23;15.87;;;;;;;4.19;90.71;101821.77;3844166;75;98822;-80
2022/03/15 05:41:53;;;;;;;30.93;15.47;;;;;;;4.33;90.28;101815.80;3802560;77;98856;-81
2022/03/15 05:46:54;;;;;;;29.10;15.33;;;;;;;4.46;90.23;101822.34;3812795;77;98973;-80
2022/03/15 05:51:55;;;;;;;29.70;17.20;;;;;;;4.58;90.54;101809.83;3778680;77;98802;-80
2022/03/15 05:56:57;;;;;;;31.33;15.73;;;;;;;4.70;91.02;101811.48;3800470;77;98835;-81
2022/03/15 06:01:58;;;;;;;29.47;16.63;;;;;;;4.83;91.28;101809.31;3788799;77;98702;-81
2022/03/15 06:07:00;;;;;;;34.83;17.63;;;;;;;4.95;91.79;101809.59;3811753;77;98770;-80
2022/03/15 06:12:03;;;;;;;35.90;18.10;;;;;;;5.08;92.27;101813.42;3789938;76;98899;-81
2022/03/15 06:17:05;;;;;;;58.27;32.23;;;;;;;5.20;91.83;101820.50;3792446;77;98822;-81
2022/03/15 06:22:06;;;;;;;42.27;26.27;;;;;;;5.31;92.20;101815.89;3795141;77;98822;-81
2022/03/15 06:27:07;;;;;;;43.07;22.67;;;;;;;5.44;92.58;101823.75;3784486;77;98999;-80
2022/03/15 06:32:08;;;;;;;47.80;28.97;;;;;;;5.55;93.05;101821.85;3790374;76;98562;-81
2022/03/15 06:37:09;;;;;;;47.93;24.03;;;;;;;5.66;93.08;101830.59;3774801;77;98747;-81
2022/03/15 06:42:11;;;;;;;44.80;21.73;;;;;;;5.77;93.20;101823.77;3792831;76;98870;-81
2022/03/15 06:47:12;;;;;;;44.23;22.13;;;;;;;5.87;93.81;101823.00;3784274;76;99010;-81
2022/03/15 06:52:14;;;;;;;53.53;27.07;;;;;;;5.99;93.90;101823.78;3813527;76;98824;-81
2022/03/15 06:57:15;;;;;;;50.57;27.10;;;;;;;6.10;94.37;101822.39;3793727;76;98899;-80
2022/03/15 07:02:16;;;;;;;54.30;26.30;;;;;;;6.20;94.24;101828.97;3810621;76;98642;-81
2022/03/15 07:07:17;;;;;;;52.17;25.10;;;;;;;6.30;94.32;101822.69;3779533;76;98749;-80
2022/03/15 07:12:19;;;;;;;47.37;23.83;;;;;;;6.40;94.16;101829.25;3809858;75;98882;-80
2022/03/15 07:17:20;;;;;;;51.07;23.63;;;;;;;6.48;94.14;101833.12;3794943;76;98913;-81
2022/03/15 07:22:21;;;;;;;47.30;23.63;;;;;;;6.55;93.91;101835.65;3857149;75;98774;-82
2022/03/15 07:27:22;;;;;;;52.43;24.60;;;;;;;6.63;93.93;101827.23;3798627;76;98815;-81
2022/03/15 07:32:23;;;;;;;48.07;24.83;;;;;;;6.68;93.89;101832.02;3816227;76;98601;-79
2022/03/15 07:37:25;;;;;;;55.27;26.97;;;;;;;6.74;94.07;101835.39;3831585;75;99247;-79
2022/03/15 07:42:26;;;;;;;52.80;26.30;;;;;;;6.79;93.96;101833.33;3856627;75;98833;-79
2022/03/15 07:47:27;;;;;;;52.50;26.20;;;;;;;6.85;94.25;101839.45;3824882;75;98847;-78
2022/03/15 07:52:28;;;;;;;52.13;25.83;;;;;;;6.88;94.31;101840.20;3826426;75;98870;-78
2022/03/15 07:57:29;;;;;;;50.97;25.53;;;;;;;6.92;94.22;101841.97;3850722;75;98827;-78
2022/03/15 08:02:30;;;;;;;54.40;26.57;;;;;;;6.95;94.57;101841.34;3842174;75;98625;-78
2022/03/15 08:07:31;;;;;;;54.47;26.17;;;;;;;6.99;94.78;101842.88;3829351;75;99083;-78
2022/03/15 08:12:32;;;;;;;56.10;26.40;;;;;;;7.03;94.53;101833.70;3766999;76;98777;-79
2022/03/15 08:17:34;;;;;;;48.83;26.62;;;;;;;7.11;94.32;101819.80;3778612;77;99246;-78
2022/03/15 08:22:35;;;;;;;48.47;26.17;;;;;;;7.23;94.59;101815.85;3765323;77;98898;-78
2022/03/15 08:27:36;;;;;;;51.77;25.57;;;;;;;7.40;94.38;101801.61;3743007;78;98959;-78
2022/03/15 08:32:37;;;;;;;49.77;26.40;;;;;;;7.62;94.71;101801.98;3752796;77;98423;-79
2022/03/15 08:37:38;;;;;;;48.00;25.77;;;;;;;7.80;94.39;101810.45;3818763;75;98897;-78
2022/03/15 08:42:40;;;;;;;46.70;25.13;;;;;;;7.95;94.51;101802.52;3821852;75;98837;-79
2022/03/15 08:47:41;;;;;;;42.77;24.10;;;;;;;8.16;94.16;101818.51;3791166;75;98745;-79
2022/03/15 08:52:42;;;;;;;42.20;22.47;;;;;;;8.33;93.59;101817.11;3830787;75;98778;-79
2022/03/15 08:57:43;;;;;;;44.07;25.00;;;;;;;8.46;93.20;101820.20;3842403;75;98906;-78
2022/03/15 09:02:44;;;;;;;43.77;24.40;;;;;;;8.59;92.95;101819.19;3833004;75;98574;-78
2022/03/15 09:07:51;;;;;;;39.70;22.15;;;;;;;8.72;92.75;101814.03;3831589;75;98964;-78
2022/03/15 09:12:53;;;;;;;38.23;22.23;;;;;;;8.85;92.32;101812.19;3824742;75;99236;-79
2022/03/15 09:17:57;;;;;;;42.85;23.87;;;;;;;8.96;91.89;101820.28;3840628;75;98831;-79
2022/03/15 09:22:59;;;;;;;48.55;26.05;;;;;;;9.07;91.51;101817.38;3869964;75;98825;-78
2022/03/15 09:28:00;;;;;;;43.58;24.47;;;;;;;9.08;91.45;101812.94;3816666;75;98626;-79
2022/03/15 09:33:02;;;;;;;47.57;24.33;;;;;;;9.10;91.21;101811.23;3871271;75;33381;-78
2022/03/15 09:38:03;;;;;;;44.60;24.33;;;;;;;9.17;91.17;101815.63;3858910;75;99046;-79
2022/03/15 09:43:09;;;;;;;40.53;22.57;;;;;;;9.28;91.00;101812.13;3844512;75;99179;-79
2022/03/15 09:48:15;;;;;;;43.20;23.85;;;;;;;9.42;90.58;101812.67;3821378;75;98804;-78
2022/03/15 09:53:19;;;;;;;39.23;21.87;;;;;;;9.49;90.07;101812.14;3833694;75;98809;-78
2022/03/15 09:58:22;;;;;;;36.60;21.45;;;;;;;9.44;89.83;101811.76;3841969;75;98982;-79
2022/03/15 10:03:25;;;;;;;41.97;23.37;;;;;;;9.49;89.56;101820.39;3805966;75;26502;-78
2022/03/15 10:08:26;;;;;;;44.85;22.77;;;;;;;9.52;89.39;101815.58;3850675;75;98864;-78
2022/03/15 10:13:31;;;;;;;41.33;22.20;;;;;;;9.52;89.34;101809.52;3826832;75;99204;-75
2022/03/15 10:18:32;;;;;;;38.38;21.57;;;;;;;9.61;89.30;101808.89;3818802;75;98940;-78
2022/03/15 10:23:37;;;;;;;38.40;22.37;;;;;;;9.70;88.99;101801.34;3709197;78;99306;-78
2022/03/15 10:28:39;;;;;;;44.90;24.10;;;;;;;9.78;88.52;101791.41;3851515;75;99477;-78
2022/03/15 10:33:41;;;;;;;55.00;27.52;;;;;;;10.05;88.67;101788.09;3841472;75;25814;-79
2022/03/15 10:38:51;;;;;;;44.88;23.80;;;;;;;10.17;87.62;101789.48;3844261;75;99282;-79
2022/03/15 10:44:01;;;;;;;42.35;24.15;;;;;;;10.29;87.06;101783.98;3820981;74;98975;-78
2022/03/15 10:49:03;;;;;;;38.50;21.57;;;;;;;10.41;86.31;101786.78;3713884;78;99603;-78
2022/03/15 10:54:06;;;;;;;35.83;20.27;;;;;;;10.51;85.80;101784.92;3835939;75;99537;-79
2022/03/15 10:59:11;;;;;;;33.70;18.13;;;;;;;10.69;85.23;101773.94;3800610;75;99521;-78
2022/03/15 11:04:12;;;;;;;29.77;16.75;;;;;;;10.79;83.90;101774.26;3869113;75;99704;-78
2022/03/15 11:09:30;;;;;;;33.40;17.45;;;;;;;10.96;83.67;101765.73;3811892;75;99150;-77
2022/03/15 11:14:49;;;;;;;24.83;14.73;;;;;;;11.13;82.47;101765.47;3832969;75;99313;-79
2022/03/15 11:19:52;;;;;;;24.25;14.40;;;;;;;11.25;81.26;101770.16;3833276;75;99415;-79
2022/03/15 11:25:17;;;;;;;24.52;14.68;;;;;;;11.32;79.87;101771.17;3844531;75;99146;-78
2022/03/15 11:30:20;;;;;;;22.60;12.23;;;;;;;11.32;79.18;101767.60;3835482;75;99542;-78
2022/03/15 11:35:22;;;;;;;23.87;13.68;;;;;;;11.37;78.16;101754.95;3812237;75;99849;-79
2022/03/15 11:40:24;;;;;;;26.23;13.75;;;;;;;11.41;77.99;101755.30;3835669;75;99210;-79
2022/03/15 11:45:36;;;;;;;23.30;13.88;;;;;;;11.44;77.00;101733.91;3781419;77;25730;-79
2022/03/15 11:51:02;;;;;;;19.97;11.33;;;;;;;11.44;77.00;101733.91;3741309;77;98961;-78
2022/03/15 11:56:31;;;;;;;19.13;10.30;;;;;;;11.72;76.31;101728.42;3759709;77;99344;-78
2022/03/15 12:01:49;;;;;;;21.43;11.10;;;;;;;11.99;74.96;101720.07;3764089;77;99395;-78
2022/03/15 12:06:57;;;;;;;20.12;11.33;;;;;;;12.12;73.84;101720.80;3764569;77;99252;-79
2022/03/15 12:12:07;;;;;;;20.60;11.03;;;;;;;12.07;72.98;101710.84;3764753;77;99520;-79
2022/03/15 12:17:13;;;;;;;23.42;11.70;;;;;;;12.22;73.80;101703.11;3752948;77;99387;-79
2022/03/15 12:22:36;;;;;;;22.52;12.58;;;;;;;12.23;72.23;101705.30;3787718;77;99557;-79
2022/03/15 12:27:41;;;;;;;23.45;13.20;;;;;;;12.06;72.00;101705.09;3777111;77;99188;-80
2022/03/15 12:32:54;;;;;;;24.75;13.30;;;;;;;12.14;72.99;101659.95;3782844;77;98735;-79
2022/03/15 12:38:08;;;;;;;28.45;15.10;;;;;;;12.14;72.99;101633.73;3782971;77;99165;-79
2022/03/15 12:43:09;;;;;;;27.98;16.15;;;;;;;12.37;71.30;101648.46;3744752;76;98930;-79
2022/03/15 12:48:10;;;;;;;23.38;14.33;;;;;;;12.37;71.30;101648.46;3718403;78;99241;-79
2022/03/15 12:53:14;;;;;;;29.00;16.60;;;;;;;12.53;71.36;101665.02;3729663;78;99125;-79
2022/03/15 12:58:16;;;;;;;24.20;14.00;;;;;;;12.62;71.10;101649.02;3696144;78;99401;-80
2022/03/15 13:03:19;;;;;;;27.07;15.05;;;;;;;12.97;69.76;101634.63;3703167;78;26378;-79
2022/03/15 13:08:20;;;;;;;20.40;13.20;;;;;;;12.97;69.76;101634.63;3745165;78;99307;-79
2022/03/15 13:13:29;;;;;;;19.63;11.20;;;;;;;13.09;69.75;101638.62;3732341;78;99055;-80
2022/03/15 13:18:34;;;;;;;20.45;11.93;;;;;;;13.19;69.27;101641.59;3712415;78;99192;-79
2022/03/15 13:23:49;;;;;;;29.35;17.70;;;;;;;13.28;69.22;101638.59;3730737;77;99108;-78
2022/03/15 13:28:53;;;;;;;22.17;13.22;;;;;;;13.36;69.37;101626.52;3725524;78;99156;-80
2022/03/15 13:34:00;;;;;;;17.87;9.83;;;;;;;13.36;69.37;101626.52;3663168;80;99219;-79
2022/03/15 13:39:07;;;;;;;20.02;10.38;;;;;;;13.41;68.65;101604.88;3708772;78;98966;-79
2022/03/15 13:44:22;;;;;;;15.50;7.78;;;;;;;13.59;69.00;101621.80;3722120;77;98116;-80
2022/03/15 13:49:27;;;;;;;16.27;7.97;;;;;;;13.59;66.85;101619.03;3702069;77;98777;-80
2022/03/15 13:54:29;;;;;;;16.23;7.53;;;;;;;13.57;66.98;101602.02;3720200;78;99303;-80
2022/03/15 13:59:30;;;;;;;14.80;7.00;;;;;;;13.66;66.71;101600.59;3718585;78;99068;-80
2022/03/15 14:04:34;;;;;;;18.50;9.20;;;;;;;13.68;65.90;101598.25;3719419;78;99009;-80
2022/03/15 14:09:37;;;;;;;17.85;8.20;;;;;;;13.47;65.87;101585.42;3709133;78;98655;-79
2022/03/15 14:14:49;;;;;;;15.63;7.47;;;;;;;13.55;66.75;101579.44;3730888;78;98775;-79
2022/03/15 14:19:51;;;;;;;17.20;7.67;;;;;;;13.51;65.86;101571.69;3745459;78;98681;-79
2022/03/15 14:24:57;;;;;;;13.80;7.75;;;;;;;13.33;65.67;101565.84;3715131;78;98910;-79
2022/03/15 14:30:03;;;;;;;;;;;;;;;13.34;66.39;101561.09;3739760;78;98914;-79
2022/03/15 14:35:09;;;;;;;13.83;7.17;;;;;;;13.52;65.11;101551.16;3750029;78;84196;-79
2022/03/15 14:40:12;;;;;;;;;;;;;;;13.50;65.10;101542.41;3729277;77;98960;-79
2022/03/15 14:45:14;;;;;;;17.80;7.17;;;;;;;13.48;65.10;101540.60;3817863;75;26489;-80
2022/03/15 14:50:15;;;;;;;12.05;7.37;;;;;;;13.36;64.89;101533.28;3814001;75;98960;-79
2022/03/15 14:55:17;;;;;;;16.47;6.57;;;;;;;13.26;64.91;101530.34;3815154;75;98820;-79
2022/03/15 15:00:19;;;;;;;15.32;7.55;;;;;;;13.07;64.71;101523.47;3843390;75;99134;-79
2022/03/15 15:05:25;;;;;;;17.50;7.83;;;;;;;12.96;64.51;101518.33;3834882;75;99023;-79
2022/03/15 15:10:25;;;;;;;15.20;6.83;;;;;;;12.76;64.62;101517.53;3825497;75;99068;-78
2022/03/15 15:15:29;;;;;;;16.27;7.50;;;;;;;12.68;64.81;101499.80;3838869;75;33100;-78
2022/03/15 15:20:31;;;;;;;13.83;7.12;;;;;;;12.67;66.25;101491.30;3821131;75;98878;-78
2022/03/15 15:25:33;;;;;;;15.33;8.10;;;;;;;12.61;66.24;101493.58;3814634;75;98851;-79
2022/03/15 15:30:34;;;;;;;13.50;8.03;;;;;;;12.61;66.24;101493.58;3823305;75;98916;-79
2022/03/15 15:35:37;;;;;;;16.53;7.07;;;;;;;12.59;66.38;101487.59;3848206;74;99020;-78
2022/03/15 15:40:42;;;;;;;16.50;8.08;;;;;;;12.56;66.71;101478.68;3836743;75;98888;-79
2022/03/15 15:45:43;;;;;;;15.88;7.10;;;;;;;12.43;66.02;101474.45;3820796;75;26185;-79
2022/03/15 15:50:47;;;;;;;11.83;5.80;;;;;;;12.42;66.32;101465.96;3814228;75;99026;-79
2022/03/15 15:55:50;;;;;;;16.20;9.13;;;;;;;12.33;66.63;101460.45;3826903;75;98872;-79
2022/03/15 16:00:52;;;;;;;18.73;9.20;;;;;;;12.33;67.01;101467.35;3816238;75;99324;-79
2022/03/15 16:05:53;;;;;;;19.48;9.98;;;;;;;12.05;67.33;101449.61;3834747;75;99397;-80
2022/03/15 16:10:55;;;;;;;16.63;8.87;;;;;;;11.84;67.80;101446.98;3795791;75;98900;-80
2022/03/15 16:15:55;;;;;;;28.15;13.08;;;;;;;11.77;68.06;101448.99;3801390;75;98948;-80
2022/03/15 16:20:57;;;;;;;19.85;11.48;;;;;;;11.49;68.50;101448.31;3810142;75;99170;-79
2022/03/15 16:25:59;;;;;;;23.20;11.83;;;;;;;11.25;69.22;101446.34;3807304;75;99247;-78
2022/03/15 16:31:07;;;;;;;26.57;12.90;;;;;;;11.08;69.91;101446.14;3812405;75;99163;-79
2022/03/15 16:36:08;;;;;;;22.50;12.73;;;;;;;10.90;70.22;101437.98;3828713;75;99209;-80
2022/03/15 16:41:10;;;;;;;21.07;11.37;;;;;;;10.63;70.98;101429.80;3800685;75;99549;-79
2022/03/15 16:46:11;;;;;;;22.45;11.25;;;;;;;10.40;71.59;101426.81;3800912;75;98405;-79
2022/03/15 16:51:11;;;;;;;25.00;13.50;;;;;;;10.24;71.81;101430.69;3775269;75;98691;-79
2022/03/15 16:56:13;;;;;;;22.30;11.10;;;;;;;10.05;72.39;101420.89;3808138;75;99018;-78
2022/03/15 17:01:14;;;;;;;20.77;10.67;;;;;;;9.81;72.97;101416.23;3800273;75;99096;-78
2022/03/15 17:06:16;;;;;;;20.13;10.63;;;;;;;9.63;73.50;101403.91;3817735;75;98975;-78
2022/03/15 17:11:21;;;;;;;22.33;12.60;;;;;;;9.43;74.23;101392.48;3810347;75;99174;-79
2022/03/15 17:16:21;;;;;;;20.85;12.10;;;;;;;9.24;74.64;101390.92;3811721;75;99125;-79
2022/03/15 17:21:26;;;;;;;26.97;14.40;;;;;;;9.10;75.23;101384.96;3822618;75;98779;-79
2022/03/15 17:26:27;;;;;;;29.67;14.10;;;;;;;8.96;75.80;101389.20;3802766;75;98933;-80
2022/03/15 17:31:35;;;;;;;28.38;15.63;;;;;;;8.87;76.37;101387.13;3803025;75;98744;-80
2022/03/15 17:36:39;;;;;;;39.73;20.73;;;;;;;8.78;77.23;101382.33;3802309;75;98444;-79
2022/03/15 17:41:45;;;;;;;46.77;23.90;;;;;;;8.74;77.51;101390.45;3764122;77;98883;-80
2022/03/15 17:46:52;;;;;;;35.83;18.90;;;;;;;8.71;77.73;101382.89;3783742;77;104040;-80
2022/03/15 17:51:51;;;;;;;30.23;15.72;;;;;;;8.66;78.21;101376.80;3789860;76;26574;-80
2022/03/15 17:56:55;;;;;;;37.70;16.03;;;;;;;8.61;78.45;101368.23;3806620;75;98924;-79
2022/03/15 18:01:55;;;;;;;34.43;18.00;;;;;;;8.56;79.09;101375.91;3764897;76;98605;-79
2022/03/15 18:06:55;;;;;;;34.43;19.13;;;;;;;8.55;79.63;101368.23;3783119;76;98753;-80
2022/03/15 18:12:00;;;;;;;38.07;20.00;;;;;;;8.51;79.48;101378.27;3780401;76;98870;-80
2022/03/15 18:17:00;;;;;;;38.20;19.10;;;;;;;8.41;79.80;101372.44;3758074;76;99310;-80
2022/03/15 18:22:02;;;;;;;43.68;21.50;;;;;;;8.33;80.04;101371.38;3763827;76;99157;-79
2022/03/15 18:27:03;;;;;;;35.80;18.32;;;;;;;8.29;80.30;101371.04;3749009;77;98697;-80
2022/03/15 18:32:07;;;;;;;32.48;17.32;;;;;;;8.11;80.71;101370.38;3763704;78;99068;-80
2022/03/15 18:37:08;;;;;;;31.48;17.80;;;;;;;8.01;81.24;101371.38;3740962;78;99235;-81
2022/03/15 18:42:09;;;;;;;30.50;17.20;;;;;;;7.98;81.95;101372.03;3798419;75;99213;-81
2022/03/15 18:47:10;;;;;;;46.27;23.90;;;;;;;7.93;82.54;101366.75;3758235;76;99290;-80
2022/03/15 18:52:11;;;;;;;40.90;23.93;;;;;;;7.93;82.49;101371.69;3740812;77;99143;-80
2022/03/15 18:57:12;;;;;;;36.17;20.63;;;;;;;7.93;82.69;101378.53;3746562;77;98940;-81
2022/03/15 19:02:14;;;;;;;45.03;22.73;;;;;;;7.93;83.16;101364.02;3681566;78;98969;-81
2022/03/15 19:07:22;;;;;;;61.37;28.53;;;;;;;7.91;83.41;101356.13;3672806;78;99340;-81
2022/03/15 19:12:21;;;;;;;152.50;50.97;;;;;;;7.85;83.43;101356.09;3662709;78;98495;-79
2022/03/15 19:17:22;;;;;;;102.90;40.40;;;;;;;7.83;83.67;101357.57;3697697;79;99131;-79
2022/03/15 19:22:23;;;;;;;76.37;34.00;;;;;;;7.78;84.14;101345.44;3691186;78;99435;-80
2022/03/15 19:27:26;;;;;;;62.67;29.98;;;;;;;7.75;84.28;101356.50;3690365;78;98509;-79
2022/03/15 19:32:29;;;;;;;57.33;28.03;;;;;;;7.73;84.85;101357.42;3703391;79;99073;-80
2022/03/15 19:37:30;;;;;;;50.23;23.62;;;;;;;7.74;85.09;101360.39;3710860;78;99108;-79
2022/03/15 19:42:34;;;;;;;45.30;22.07;;;;;;;7.73;85.55;101355.23;3707798;78;99245;-80
2022/03/15 19:47:37;;;;;;;39.10;21.25;;;;;;;7.72;85.55;101346.79;3676192;79;99182;-81
2022/03/15 19:52:39;;;;;;;44.83;23.77;;;;;;;7.70;85.76;101347.11;3727490;79;99311;-80
2022/03/15 19:57:43;;;;;;;39.98;20.80;;;;;;;7.68;86.28;101341.18;3677782;79;98419;-79
2022/03/15 20:02:45;;;;;;;40.47;21.27;;;;;;;7.68;86.28;101341.18;3740926;78;98952;-78
2022/03/15 20:07:53;;;;;;;44.00;23.27;;;;;;;7.70;86.22;101338.89;3722959;77;98964;-80
2022/03/15 20:12:58;;;;;;;40.57;22.33;;;;;;;7.70;86.54;101339.48;3767304;78;98855;-80
2022/03/15 20:18:06;;;;;;;41.10;22.75;;;;;;;7.70;87.03;101336.74;3744621;78;98884;-80
2022/03/15 20:23:08;;;;;;;49.95;25.10;;;;;;;7.70;86.91;101328.52;3745086;78;98888;-80
2022/03/15 20:28:11;;;;;;;54.70;26.00;;;;;;;7.69;87.06;101319.48;3707080;78;98883;-80
2022/03/15 20:33:14;;;;;;;59.23;29.07;;;;;;;7.65;87.10;101330.09;3753830;78;26410;-80
2022/03/15 20:38:16;;;;;;;54.93;27.77;;;;;;;7.63;87.38;101336.48;3714377;78;98764;-81
2022/03/15 20:48:45;;;;;;;54.15;27.87;;;;;;;7.58;87.50;101343.54;3834564;75;98907;-81
2022/03/15 20:53:49;;;;;;;52.80;26.93;;;;;;;7.53;87.82;101337.67;3818879;75;98744;-79
2022/03/15 20:58:52;;;;;;;49.95;24.63;;;;;;;7.51;88.22;101336.41;3840884;75;98868;-80
2022/03/15 21:03:53;;;;;;;48.70;25.33;;;;;;;7.52;88.19;101336.66;3813111;75;26400;-80
2022/03/15 21:08:54;;;;;;;47.57;25.60;;;;;;;7.52;88.20;101332.55;3824455;75;98675;-79
2022/03/15 21:13:58;;;;;;;47.93;25.00;;;;;;;7.52;88.38;101326.48;3848980;75;98857;-80
2022/03/15 21:18:58;;;;;;;45.30;23.05;;;;;;;7.52;88.48;101317.48;3811106;75;98759;-79
2022/03/15 21:24:06;;;;;;;44.60;23.33;;;;;;;7.53;88.21;101319.87;3822426;75;99163;-79
2022/03/15 21:29:14;;;;;;;48.40;25.07;;;;;;;7.55;88.60;101323.09;3797524;75;99212;-81
2022/03/15 21:34:15;;;;;;;51.10;25.70;;;;;;;7.54;88.56;101317.39;3820189;75;98760;-80
2022/03/15 21:39:17;;;;;;;52.62;27.58;;;;;;;7.53;88.53;101317.12;3804590;75;98706;-82
2022/03/15 21:44:19;;;;;;;57.83;28.10;;;;;;;7.53;88.40;101314.98;3827506;75;98598;-82
2022/03/15 21:49:23;;;;;;;54.18;28.10;;;;;;;7.51;88.65;101300.23;3755636;77;98678;-82
2022/03/15 21:54:27;;;;;;;55.90;27.93;;;;;;;7.49;88.64;101292.94;3758930;77;99104;-82
2022/03/15 21:59:26;;;;;;;55.50;29.72;;;;;;;7.47;88.59;101286.19;3766413;77;99089;-82
2022/03/15 22:04:29;;;;;;;86.20;36.20;;;;;;;7.42;88.82;101273.48;3770548;77;98893;-82
2022/03/15 22:09:30;;;;;;;70.40;30.40;;;;;;;7.38;89.10;101265.73;3751087;77;99019;-81
2022/03/15 22:14:32;;;;;;;99.53;40.23;;;;;;;7.34;89.06;101263.41;3803175;76;98625;-83
2022/03/15 22:19:33;;;;;;;59.80;28.63;;;;;;;7.32;89.12;101259.41;3807744;76;98587;-81
2022/03/15 22:24:34;;;;;;;67.03;30.10;;;;;;;7.33;89.28;101263.75;3744586;77;99179;-81
2022/03/15 22:29:36;;;;;;;103.23;49.00;;;;;;;7.28;89.47;101252.99;3719415;78;98730;-81
2022/03/15 23:16:58;;;;;;;76.65;35.20;;;;;;;6.87;90.43;101245.57;3740736;77;98873;-82
2022/03/15 23:27:17;;;;;;;61.53;29.90;;;;;;;6.76;90.93;101240.25;3734241;78;98952;-82
2022/03/15 23:32:22;;;;;;;57.83;28.10;;;;;;;6.72;91.25;101235.20;3738681;78;98697;-82
2022/03/15 23:37:21;;;;;;;59.13;27.62;;;;;;;6.75;91.33;101235.11;3792063;77;99143;-83
2022/03/15 23:42:22;;;;;;;52.73;27.13;;;;;;;6.76;91.61;101240.25;3735388;77;98816;-80
2022/03/15 23:47:23;;;;;;;57.50;29.80;;;;;;;6.68;91.53;101230.73;3746632;77;99100;-83
2022/03/15 23:52:24;;;;;;;56.07;29.30;;;;;;;6.60;91.59;101233.75;3745232;77;98767;-82
2022/03/15 23:57:25;;;;;;;59.13;30.97;;;;;;;6.49;91.57;101233.11;3725714;78;98524;-82
